Latest Weather Observations for Fitzroy Crossing

IDW60801

Issued at 12:02 pm WST Saturday 25 April 2015 (issued every 30 minutes, with the page automatically refreshed every 10 minutes)

About weather observations | Map of weather stations | Latest weather observations for WA | Other Formats
Station Details ID: 003093 Name: FITZROY CROSSING AERO Lat: -18.18 Lon: 125.56 Height: 114.5 m
Data from the previous 72 hours. | See also: Recent months at Fitzroy Crossing
Date/Time
WST
Temp
°C
App
Temp
°C
Dew
Point
Rel
Hum
%
Delta-T
°C
Wind Press
QNH
hPa
Press
MSL
hPa
Rain
since 9 am
mm
Dir
 
Spd
km/h
Gust
km/h
Spd
kts
Gust
kts
25/12:00pm 34.8 31.2 8.5 20 14.9 E 17 26 9 14 1011.8 1011.1 0.0
25/11:30am 32.8 28.9 6.9 20 14.2 ESE 17 24 9 13 1012.4 1011.7 0.0
25/11:00am 31.8 27.7 6.1 20 13.8 ESE 17 24 9 13 1013.0 1012.3 0.0
25/10:30am 32.2 27.7 7.1 21 13.7 ESE 20 30 11 16 1013.3 1012.6 0.0
25/10:00am 32.5 27.9 8.0 22 13.6 ESE 22 30 12 16 1013.9 1013.1 0.0
25/09:30am 31.9 27.3 8.2 23 13.2 ESE 22 32 12 17 1014.3 1013.5 0.0
25/09:00am 30.3 26.1 8.1 25 12.2 ESE 20 33 11 18 1014.7 1013.9 0.0
25/08:30am 29.2 24.9 7.7 26 11.7 ESE 20 30 11 16 1014.6 1013.8 0.0
25/08:00am 28.1 24.0 7.9 28 11.0 ESE 19 26 10 14 1014.2 1013.4 0.0
25/07:30am 27.2 23.4 7.6 29 10.5 ESE 17 26 9 14 1014.1 1013.3 0.0
25/07:00am 26.9 23.2 7.9 30 10.3 ESE 17 22 9 12 1013.6 1012.9 0.0
25/06:30am 25.6 22.5 7.2 31 9.7 SE 13 17 7 9 1013.5 1012.8 0.0
25/06:00am 24.8 21.4 6.1 30 9.7 SE 13 19 7 10 1013.3 1012.6 0.0
25/05:30am 25.1 21.5 6.8 31 9.6 SE 15 20 8 11 1013.0 1012.3 0.0
25/05:00am 25.6 21.7 7.2 31 9.7 SE 17 20 9 11 1012.8 1012.1 0.0
25/04:30am 25.8 22.8 7.9 32 9.6 SE 13 19 7 10 1012.5 1011.8 0.0
25/04:00am 25.2 22.9 7.3 32 9.5 SSE 9 11 5 6 1012.5 1011.8 0.0
25/03:30am 25.5 23.5 7.1 31 9.7 SSE 7 9 4 5 1012.2 1011.5 0.0
25/03:00am 26.1 23.9 7.7 31 9.9 SE 9 13 5 7 1012.2 1011.5 0.0
25/02:30am 26.1 23.7 7.2 30 10.0 SE 9 15 5 8 1012.3 1011.6 0.0
25/02:00am 25.5 23.4 6.7 30 9.9 SE 7 13 4 7 1012.4 1011.7 0.0
25/01:30am 26.0 23.5 6.6 29 10.2 SE 9 13 5 7 1012.5 1011.8 0.0
25/01:00am 26.7 24.2 6.7 28 10.6 SSE 9 11 5 6 1012.6 1011.9 0.0
25/12:30am 27.2 24.3 6.6 27 10.9 SSE 11 15 6 8 1012.8 1012.1 0.0
25/12:00am 27.7 25.3 7.0 27 11.1 SSE 9 13 5 7 1013.1 1012.4 0.0
 
Date/Time
WST
Temp
°C
App
Temp
°C
Dew
Point
Rel
Hum
%
Delta-T
°C
Wind Press
QNH
hPa
Press
MSL
hPa
Rain
since 9 am
mm
Dir
 
Spd
km/h
Gust
km/h
Spd
kts
Gust
kts
24/11:30pm 28.5 26.1 7.1 26 11.5 SSE 9 13 5 7 1013.1 1012.4 0.0
24/11:00pm 28.9 25.9 7.5 26 11.6 SSE 13 17 7 9 1013.1 1012.4 0.0
24/10:30pm 29.1 26.5 7.6 26 11.7 SE 11 15 6 8 1013.1 1012.4 0.0
24/10:00pm 29.4 26.3 7.3 25 12.0 SE 13 19 7 10 1013.2 1012.5 0.0
24/09:30pm 29.7 25.9 7.6 25 12.0 SE 17 22 9 12 1013.2 1012.5 0.0
24/09:00pm 29.9 26.1 7.7 25 12.1 SE 17 24 9 13 1013.3 1012.6 0.0
24/08:30pm 30.3 26.3 8.1 25 12.2 SE 19 26 10 14 1013.1 1012.4 0.0
24/08:00pm 30.5 26.6 8.8 26 12.1 SSE 19 26 10 14 1012.9 1012.2 0.0
24/07:30pm 30.9 27.1 9.2 26 12.2 SSE 19 30 10 16 1012.5 1011.8 0.0
24/07:00pm 30.3 28.3 8.7 26 12.0 SE 9 11 5 6 1012.0 1011.3 0.0
24/06:30pm 30.7 28.6 8.4 25 12.4 SSE 9 11 5 6 1011.6 1010.9 0.0
24/06:00pm 30.8 29.0 7.3 23 12.8 SE 6 7 3 4 1011.3 1010.6 0.0
24/05:30pm 31.3 29.3 6.4 21 13.4 ESE 6 9 3 5 1010.9 1010.2 0.0
24/05:00pm 32.3 30.2 6.5 20 14.0 ESE 7 9 4 5 1010.6 1009.9 0.0
24/04:30pm 32.9 30.3 6.2 19 14.5 E 9 11 5 6 1010.2 1009.5 0.0
24/04:00pm 33.3 29.9 5.8 18 14.9 ESE 13 19 7 10 1010.0 1009.3 0.0
24/03:30pm 34.0 30.7 6.3 18 15.1 ESE 13 20 7 11 1009.9 1009.2 0.0
24/03:00pm 33.8 29.3 6.2 18 15.0 ESE 19 26 10 14 1009.8 1009.1 0.0
24/02:30pm 34.4 31.2 6.7 18 15.2 ESE 13 22 7 12 1010.0 1009.3 0.0
24/02:00pm 34.0 30.7 6.3 18 15.1 ENE 13 22 7 12 1010.3 1009.6 0.0
24/01:30pm 34.6 31.8 6.8 18 15.3 E 11 15 6 8 1010.6 1009.9 0.0
24/01:00pm 33.9 29.6 7.0 19 14.9 ESE 19 30 10 16 1010.9 1010.2 0.0
24/12:30pm 33.4 30.1 6.6 19 14.7 SE 13 22 7 12 1011.0 1010.3 0.0
24/12:00pm 32.8 28.9 6.9 20 14.2 ESE 17 24 9 13 1011.5 1010.8 0.0
24/11:30am 32.6 28.8 7.4 21 13.9 E 17 28 9 15 1011.9 1011.2 0.0
24/11:00am 31.9 27.5 7.5 22 13.4 E 20 28 11 15 1012.2 1011.5 0.0
24/10:30am 31.7 27.4 8.0 23 13.1 ESE 20 26 11 14 1012.6 1011.9 0.0
24/10:00am 31.0 26.2 8.7 25 12.5 ESE 24 35 13 19 1013.1 1012.4 0.0
24/09:30am 30.1 26.1 9.1 27 11.8 ESE 20 26 11 14 1013.4 1012.7 0.0
24/09:00am 28.9 25.0 8.6 28 11.2 ESE 19 28 10 15 1013.9 1013.1 0.0
24/08:30am 27.6 23.7 8.5 30 10.5 ESE 19 24 10 13 1014.0 1013.2 0.0
24/08:00am 26.7 23.9 8.6 32 9.9 ESE 13 19 7 10 1013.6 1012.9 0.0
24/07:30am 25.7 23.2 8.2 33 9.4 SE 11 17 6 9 1013.5 1012.8 0.0
24/07:00am 24.9 22.6 7.5 33 9.2 SE 9 13 5 7 1013.2 1012.5 0.0
24/06:30am 24.4 22.0 7.1 33 9.1 SSE 9 13 5 7 1012.8 1012.1 0.0
24/06:00am 23.5 20.9 6.3 33 8.9 SE 9 11 5 6 1012.4 1011.7 0.0
24/05:30am 24.3 21.0 6.6 32 9.2 SE 13 15 7 8 1012.1 1011.4 0.0
24/05:00am 24.4 21.6 7.1 33 9.1 SE 11 15 6 8 1011.9 1011.2 0.0
24/04:30am 23.9 20.9 6.2 32 9.1 ESE 11 11 6 6 1011.6 1010.9 0.0
24/04:00am 24.7 22.5 6.4 31 9.5 ESE 7 9 4 5 1011.4 1010.7 0.0
24/03:30am 25.8 23.1 7.4 31 9.8 ESE 11 15 6 8 1011.3 1010.6 0.0
24/03:00am 26.3 22.9 7.8 31 9.9 ESE 15 20 8 11 1011.1 1010.4 0.0
24/02:30am 26.8 22.9 8.7 32 9.9 SE 19 24 10 13 1011.0 1010.3 0.0
24/02:00am 26.9 23.9 9.3 33 9.7 SE 15 22 8 12 1011.0 1010.3 0.0
24/01:30am 26.9 25.2 9.7 34 9.6 ESE 9 11 5 6 1011.1 1010.4 0.0
24/01:00am 27.1 25.7 9.5 33 9.8 SSE 7 9 4 5 1011.4 1010.7 0.0
24/12:30am 27.8 26.4 9.6 32 10.2 SE 7 9 4 5 1011.5 1010.8 0.0
24/12:00am 28.3 26.9 9.6 31 10.5 ESE 7 9 4 5 1011.5 1010.8 0.0
 
Date/Time
WST
Temp
°C
App
Temp
°C
Dew
Point
Rel
Hum
%
Delta-T
°C
Wind Press
QNH
hPa
Press
MSL
hPa
Rain
since 9 am
mm
Dir
 
Spd
km/h
Gust
km/h
Spd
kts
Gust
kts
23/11:30pm 28.7 26.9 9.4 30 10.8 ESE 9 11 5 6 1011.4 1010.7 0.0
23/11:00pm 29.3 27.6 9.9 30 11.0 E 9 11 5 6 1011.5 1010.8 0.0
23/10:30pm 29.9 28.2 9.9 29 11.3 E 9 11 5 6 1011.6 1010.9 0.0
23/10:00pm 30.4 28.2 10.9 30 11.3 ESE 13 17 7 9 1011.6 1010.9 0.0
23/09:30pm 30.5 29.1 11.0 30 11.3 E 9 13 5 7 1011.7 1011.0 0.0
23/09:00pm 29.9 28.5 10.9 31 11.0 SE 9 11 5 6 1011.6 1010.9 0.0
23/08:30pm 30.3 29.2 10.8 30 11.2 SE 7 9 4 5 1011.7 1011.0 0.0
23/08:00pm 31.0 29.4 11.4 30 11.4 SSE 11 13 6 7 1011.7 1011.0 0.0
23/07:30pm 31.1 29.1 11.5 30 11.5 SSE 13 17 7 9 1011.5 1010.8 0.0
23/07:00pm 31.6 30.9 11.9 30 11.6 SSE 7 9 4 5 1011.1 1010.4 0.0
23/06:30pm 31.4 30.6 11.7 29 11.6 SSE 7 9 4 5 1010.6 1009.9 0.0
23/06:00pm 31.9 30.9 11.1 28 12.1 SE 7 9 4 5 1010.2 1009.5 0.0
23/05:30pm 32.6 31.3 11.2 27 12.5 SSE 9 11 5 6 1010.0 1009.3 0.0
23/05:00pm 33.2 32.2 11.1 26 13.0 SE 7 9 4 5 1009.7 1009.0 0.0
23/04:30pm 33.6 32.2 10.9 25 13.3 SSE 9 15 5 8 1009.3 1008.6 0.0
23/04:00pm 34.9 33.8 11.9 24 13.8 E 9 13 5 7 1009.2 1008.4 0.0
23/03:30pm 35.0 34.3 12.0 25 13.8 N 7 15 4 8 1009.0 1008.2 0.0
23/03:00pm 34.9 33.4 11.9 24 13.8 NNW 11 19 6 10 1008.9 1008.1 0.0
23/02:30pm 35.1 34.2 11.5 24 14.0 E 7 15 4 8 1008.9 1008.1 0.0
23/02:00pm 34.9 33.2 11.3 24 14.0 NNE 11 20 6 11 1009.2 1008.4 0.0
23/01:30pm 34.9 33.6 11.3 24 14.0 N 9 20 5 11 1009.4 1008.7 0.0
23/01:00pm 34.3 32.3 10.2 23 14.0 ENE 11 17 6 9 1009.5 1008.8 0.0
23/12:30pm 34.5 33.0 10.4 23 14.1 ENE 9 20 5 11 1009.8 1009.1 0.0
23/12:00pm 33.7 30.1 9.7 23 13.8 N 19 26 10 14 1010.3 1009.6 0.0
23/11:30am 33.4 30.8 9.4 23 13.7 NNE 13 20 7 11 1010.8 1010.1 0.0
23/11:00am 33.2 30.8 9.9 24 13.4 NE 13 24 7 13 1011.3 1010.6 0.0
23/10:30am 33.2 30.0 9.9 24 13.4 ENE 17 26 9 14 1011.6 1010.9 0.0
23/10:00am 32.4 29.3 10.4 26 12.7 E 17 24 9 13 1012.1 1011.4 0.0
23/09:30am 31.4 28.7 10.2 27 12.2 ENE 15 22 8 12 1012.6 1011.9 0.0
23/09:00am 30.7 27.7 10.6 29 11.6 E 17 22 9 12 1012.8 1012.1 0.0
23/08:30am 29.0 26.3 10.2 31 10.7 E 15 20 8 11 1012.9 1012.2 0.0
23/08:00am 28.7 26.0 10.4 32 10.4 ESE 15 19 8 10 1012.8 1012.1 0.0
23/07:30am 27.1 23.9 9.9 34 9.6 ESE 17 24 9 13 1012.6 1011.9 0.0
23/07:00am 25.4 22.3 8.8 35 9.0 ESE 15 20 8 11 1012.4 1011.7 0.0
23/06:30am 24.9 22.2 8.8 36 8.7 ESE 13 17 7 9 1012.0 1011.3 0.0
23/06:00am 24.6 22.7 9.0 37 8.5 ESE 9 17 5 9 1011.8 1011.1 0.0
23/05:30am 24.1 22.1 8.5 37 8.4 ESE 9 13 5 7 1011.6 1010.9 0.0
23/05:00am 23.4 22.5 7.9 37 8.2 SSE 2 7 1 4 1011.4 1010.7 0.0
23/04:30am 23.7 22.1 7.8 36 8.4 ESE 6 7 3 4 1011.3 1010.6 0.0
23/04:00am 24.3 22.6 8.3 36 8.6 SE 7 9 4 5 1010.9 1010.2 0.0
23/03:30am 23.9 22.6 7.5 35 8.6 SSW 4 7 2 4 1010.8 1010.1 0.0
23/03:00am 24.1 23.1 7.3 34 8.8 S 2 7 1 4 1010.6 1009.9 0.0
23/02:30am 25.0 23.2 8.1 34 9.1 SE 7 13 4 7 1010.7 1010.0 0.0
23/02:00am 24.6 21.5 7.3 33 9.1 SE 13 15 7 8 1010.3 1009.6 0.0
23/01:30am 25.3 22.8 8.3 34 9.2 SSE 11 15 6 8 1010.8 1010.1 0.0
23/01:00am 25.4 22.6 8.4 34 9.2 S 13 17 7 9 1011.2 1010.5 0.0
23/12:30am 25.3 22.8 8.3 34 9.2 S 11 15 6 8 1011.4 1010.7 0.0
23/12:00am 25.6 23.6 8.6 34 9.2 SSE 9 11 5 6 1011.2 1010.5 0.0
 
Date/Time
WST
Temp
°C
App
Temp
°C
Dew
Point
Rel
Hum
%
Delta-T
°C
Wind Press
QNH
hPa
Press
MSL
hPa
Rain
since 9 am
mm
Dir
 
Spd
km/h
Gust
km/h
Spd
kts
Gust
kts
22/11:30pm 25.9 23.7 9.3 35 9.1 S 11 15 6 8 1011.5 1010.8 0.0
22/11:00pm 25.6 24.1 9.0 35 9.1 S 7 11 4 6 1011.7 1011.0 0.0
22/10:30pm 25.7 23.7 8.7 34 9.2 SSE 9 9 5 5 1011.8 1011.1 0.0
22/10:00pm 25.8 23.4 8.8 34 9.3 S 11 13 6 7 1012.0 1011.3 0.0
22/09:30pm 25.4 22.9 8.0 33 9.3 SSW 11 13 6 7 1012.2 1011.5 0.0
22/09:00pm 25.5 23.1 7.1 31 9.7 SSW 9 11 5 6 1012.3 1011.6 0.0
22/08:30pm 26.3 23.6 7.4 30 10.1 S 11 13 6 7 1012.2 1011.5 0.0
22/08:00pm 27.3 24.3 7.7 29 10.6 SSE 13 17 7 9 1012.3 1011.6 0.0
22/07:30pm 27.5 24.4 7.4 28 10.8 SSE 13 17 7 9 1012.3 1011.6 0.0
22/07:00pm 28.0 25.0 7.8 28 11.0 S 13 17 7 9 1012.3 1011.6 0.0
22/06:30pm 28.6 25.4 8.3 28 11.1 S 15 19 8 10 1011.9 1011.2 0.0
22/06:00pm 29.1 26.3 8.7 28 11.3 S 13 19 7 10 1011.8 1011.1 0.0
22/05:30pm 29.9 28.0 8.9 27 11.7 SSW 9 11 5 6 1011.6 1010.9 0.0
22/05:00pm 30.7 28.0 9.0 26 12.2 SSW 13 17 7 9 1011.6 1010.9 0.0
22/04:30pm 31.3 30.2 10.1 27 12.1 SSW 6 20 3 11 1010.9 1010.2 0.0
22/04:00pm 31.9 30.8 10.0 26 12.6 N 6 11 3 6 1010.6 1009.9 0.0
22/03:30pm 32.5 30.8 9.9 25 13.0 N 9 17 5 9 1010.4 1009.7 0.0
22/03:00pm 32.6 30.4 9.4 24 13.2 N 11 19 6 10 1010.3 1009.6 0.0
22/02:30pm 32.6 31.6 8.8 23 13.4 NE 4 13 2 7 1010.4 1009.7 0.0
22/02:00pm 32.6 30.2 8.8 23 13.4 E 11 17 6 9 1010.4 1009.7 0.0
22/01:30pm 32.0 29.5 8.3 23 13.2 NNE 11 20 6 11 1010.6 1009.9 0.0
22/01:00pm 31.8 29.3 8.1 23 13.2 ENE 11 22 6 12 1010.7 1010.0 0.0
22/12:30pm 31.2 27.4 7.6 23 13.0 NE 17 24 9 13 1011.1 1010.4 0.0

Other Formats:

Comma delimited format used in spreadsheet applications
http://www.bom.gov.au/fwo/IDW60801/IDW60801.94206.axf

JavaScript Object Notation format (JSON) in row-major order
http://www.bom.gov.au/fwo/IDW60801/IDW60801.94206.json